• Join FlightAware (Why Join?)
  • Login
  • US Flag 
06:47PM EDT


 

Airport Tracker/Info


-or-


 

Live Flight TrackerFlight Track Log ✈ EJA396 ✈ 26-Sep-2013 ✈ KSER - KPWK

Flight Track Log - Related Links

Times and Time Zones

All times are in EDT time to prevent confusion due to time zone crossing. See the EJA396 flight status page for this flight to view local times or setup timezone preferences in your user account.

Time Position Orientation Groundspeed Altitude Reporting Facility
EDT Latitude Longitude Course Direction KTS MPH feet Rate Location/Type
04:57PM 39.4012 -86.1931 327° Northwest  Level Estimated
04:58PM 39.4815 -86.2383 336° Northwest  Level FlightAware Approximate
04:59PM 39.5608 -86.2863 324° Northwest  Level Estimated
05:00PM 39.6359 -86.3446 329° Northwest  Level FlightAware Approximate
05:01PM 39.7110 -86.4031 329° Northwest  Level FlightAware Approximate
05:02PM 39.7860 -86.4617 329° Northwest  Level FlightAware Approximate
05:03PM 39.8610 -86.5204 329° Northwest  Level FlightAware Approximate
05:04PM 39.9360 -86.5792 329° Northwest  Level FlightAware Approximate
05:05PM 40.0056 -86.6199 336° Northwest  Level Estimated
05:06PM 40.0751 -86.6608 336° Northwest  Level Estimated
05:07PM 40.1446 -86.7017 336° Northwest  Level Estimated
05:08PM 40.2140 -86.7427 336° Northwest  Level Estimated
05:09PM 40.2835 -86.7838 336° Northwest  Level Estimated
05:10PM 40.3529 -86.8249 336° Northwest  Level Estimated
05:11PM 40.4224 -86.8662 336° Northwest  Level Estimated
05:12PM 40.4918 -86.9075 336° Northwest  Level Estimated
05:13PM 40.5612 -86.9489 336° Northwest  Level Estimated
05:14PM 40.6306 -86.9904 336° Northwest  Level Estimated
05:14PM 38.9286 -85.8606 335° Northwest 158 182 2,900  Level Indianapolis Center
05:15PM 40.6999 -87.0320 336° Northwest  Level Estimated
05:15PM 38.8889 -85.8056 133° Southeast 204 235 4,600  Level Indianapolis Center
05:16PM 40.7693 -87.0737 336° Northwest  Level Estimated
05:16PM 38.8336 -85.7256 132° Southeast 247 284 8,000  Level Indianapolis Center
05:17PM 40.8386 -87.1154 336° Northwest  Level Estimated
05:17PM 38.7853 -85.6581 133° Southeast 256 295 9,000  Level Indianapolis Center
05:18PM 40.9080 -87.1573 335° Northwest  Level Estimated
05:18PM 38.7322 -85.5811 131° Southeast 282 325 9,000  Level Indianapolis Center
05:19PM 40.9776 -87.1995 335° Northwest  Level Estimated
05:19PM 38.6786 -85.5053 132° Southeast 288 331 9,000  Level Indianapolis Center
05:20PM 41.0473 -87.2417 335° Northwest  Level Estimated
05:21PM 38.6256 -85.4292 132° Southeast 287 330 9,000  Level Indianapolis Center
05:22PM 38.5622 -85.3400 132° Southeast 283 326 9,000  Level Indianapolis Center
05:23PM 38.5086 -85.2653 133° Southeast 284 327 9,000  Level Indianapolis Center
05:24PM 38.4578 -85.1942 132° Southeast 283 326 9,000  Level Indianapolis Center
05:25PM 38.4039 -85.1200 133° Southeast 284 327 9,000  Level Indianapolis Center
05:26PM 38.3428 -85.0308 131° Southeast 282 325 9,000 -420 Level Indianapolis Center
05:27PM 38.2822 -84.9628 139° Southeast 287 330 8,200 -900 Descending Indianapolis Center
05:28PM 38.2203 -84.9006 142° Southeast 285 328 7,200 -600 Descending Indianapolis Center
05:29PM 38.1642 -84.8408 140° Southeast 270 311 7,000 -120 Descending Indianapolis Center
05:30PM 38.1108 -84.7872 142° Southeast 251 289 7,000 -780 Level Indianapolis Center
05:31PM 38.0511 -84.7458 151° Southeast 220 253 5,400 -1,380 Descending Indianapolis Center
05:32PM 37.9908 -84.7436 178° South 221 254 4,200 -1,080 Descending Indianapolis Center
05:33PM 37.9406 -84.7392 176° South 202 232 3,200 -780 Descending Indianapolis Center
05:34PM 37.9658 -84.6844 60° Northeast 202 232 2,700 -360 Descending Indianapolis Center
05:35PM 37.9978 -84.6486 41° Northeast 190 219 2,500 -240 Descending Indianapolis Center
05:37PM 38.0333 -84.6000 122° Southeast  Level FlightAware Approximate
05:44PM 38.2703 -84.7794 122° Southeast  Level Estimated
05:45PM 38.3041 -84.8051 122° Southeast  Level Estimated
05:46PM 38.3379 -84.8308 122° Southeast  Level Estimated
05:47PM 38.3717 -84.8566 122° Southeast  Level Estimated
05:48PM 38.4055 -84.8824 122° Southeast  Level Estimated
05:49PM 38.4393 -84.9082 122° Southeast  Level Estimated
05:50PM 38.4731 -84.9340 122° Southeast  Level Estimated
05:51PM 38.5069 -84.9599 122° Southeast  Level Estimated
05:52PM 38.5407 -84.9858 122° Southeast  Level Estimated
05:53PM 38.5745 -85.0117 122° Southeast  Level Estimated
05:54PM 38.6083 -85.0376 122° Southeast  Level Estimated
05:55PM 38.6421 -85.0636 122° Southeast  Level Estimated
05:56PM 38.6758 -85.0896 122° Southeast  Level Estimated
05:57PM 38.7096 -85.1156 122° Southeast  Level Estimated
05:58PM 38.7433 -85.1416 122° Southeast  Level Estimated
05:59PM 38.7771 -85.1677 122° Southeast  Level Estimated
06:00PM 38.8108 -85.1938 122° Southeast  Level Estimated
06:01PM 38.8445 -85.2199 122° Southeast  Level Estimated
06:02PM 38.8783 -85.2460 122° Southeast  Level Estimated
06:03PM 38.9120 -85.2722 122° Southeast  Level Estimated
06:04PM 38.9457 -85.2983 122° Southeast  Level Estimated
06:05PM 38.9794 -85.3245 122° Southeast  Level Estimated
06:06PM 39.0131 -85.3508 122° Southeast  Level Estimated
06:07PM 39.0468 -85.3770 122° Southeast  Level Estimated
06:08PM 39.0805 -85.4033 122° Southeast  Level Estimated
06:09PM 39.1142 -85.4296 122° Southeast  Level Estimated
06:10PM 39.1479 -85.4560 122° Southeast  Level Estimated
06:11PM 39.1816 -85.4823 122° Southeast  Level Estimated
06:12PM 39.2152 -85.5087 122° Southeast  Level Estimated
06:13PM 39.2489 -85.5351 122° Southeast  Level Estimated
06:14PM 39.2826 -85.5615 122° Southeast  Level Estimated
06:15PM 39.3162 -85.5880 122° Southeast  Level Estimated
06:16PM 39.3499 -85.6145 122° Southeast  Level Estimated
06:17PM 39.3835 -85.6410 122° Southeast  Level Estimated
06:18PM 39.4171 -85.6675 122° Southeast  Level Estimated
06:19PM 39.4508 -85.6941 122° Southeast  Level Estimated
06:20PM 39.4844 -85.7207 122° Southeast  Level Estimated
06:21PM 39.5180 -85.7473 122° Southeast  Level Estimated
06:22PM 39.5516 -85.7739 122° Southeast  Level Estimated
06:23PM 39.5852 -85.8006 122° Southeast  Level Estimated
06:24PM 39.6188 -85.8273 122° Southeast  Level Estimated
06:25PM 39.6524 -85.8540 122° Southeast  Level Estimated
06:26PM 39.6860 -85.8808 122° Southeast  Level Estimated
06:27PM 39.7196 -85.9075 122° Southeast  Level Estimated
06:28PM 39.7531 -85.9343 122° Southeast  Level Estimated
06:29PM 39.7867 -85.9611 122° Southeast  Level Estimated
06:30PM 39.8203 -85.9880 122° Southeast  Level Estimated
06:31PM 39.8538 -86.0148 122° Southeast  Level Estimated
06:32PM 39.8874 -86.0417 122° Southeast  Level Estimated
06:33PM 39.9209 -86.0687 122° Southeast  Level Estimated
06:34PM 39.9544 -86.0956 122° Southeast  Level Estimated
06:35PM 39.9880 -86.1226 122° Southeast  Level Estimated
06:36PM 40.0215 -86.1496 122° Southeast  Level Estimated
06:37PM 40.0550 -86.1767 122° Southeast  Level Estimated
06:38PM 40.0885 -86.2037 122° Southeast  Level Estimated
06:39PM 40.1220 -86.2308 122° Southeast  Level Estimated
06:40PM 40.1555 -86.2579 122° Southeast  Level Estimated
06:41PM 40.1890 -86.2850 122° Southeast  Level Estimated
06:42PM 40.2225 -86.3122 122° Southeast  Level Estimated
06:43PM 40.2560 -86.3394 122° Southeast  Level Estimated
06:44PM 40.2895 -86.3666 122° Southeast  Level Estimated
06:45PM 40.3229 -86.3939 122° Southeast  Level Estimated
06:46PM 40.3564 -86.4211 122° Southeast  Level Estimated
06:47PM 40.3898 -86.4484 122° Southeast  Level Estimated
06:48PM 40.4233 -86.4758 122° Southeast  Level Estimated
06:49PM 40.4567 -86.5031 122° Southeast  Level Estimated
06:50PM 40.4902 -86.5305 122° Southeast  Level Estimated
06:51PM 40.5236 -86.5579 122° Southeast  Level Estimated
06:52PM 40.5570 -86.5854 122° Southeast  Level Estimated
06:53PM 40.5904 -86.6128 122° Southeast  Level Estimated
06:54PM 40.6238 -86.6403 122° Southeast  Level Estimated
06:55PM 40.6572 -86.6678 122° Southeast  Level Estimated
06:56PM 40.6906 -86.6954 122° Southeast  Level Estimated
06:57PM 40.7240 -86.7229 122° Southeast  Level Estimated
06:58PM 40.7574 -86.7505 122° Southeast  Level Estimated
06:59PM 40.7908 -86.7782 122° Southeast  Level Estimated
07:00PM 40.8242 -86.8058 122° Southeast  Level Estimated
07:01PM 40.8575 -86.8335 122° Southeast  Level Estimated
07:02PM 40.8909 -86.8612 122° Southeast  Level Estimated
07:03PM 40.9242 -86.8890 122° Southeast  Level Estimated
07:04PM 40.9576 -86.9167 122° Southeast  Level Estimated
07:05PM 40.9909 -86.9445 122° Southeast  Level Estimated
07:06PM 41.0242 -86.9724 122° Southeast  Level Estimated
07:07PM 41.0576 -87.0002 122° Southeast  Level Estimated
07:08PM 41.0909 -87.0281 122° Southeast  Level Estimated
07:09PM 41.1242 -87.0560 122° Southeast  Level Estimated
07:10PM 41.1575 -87.0839 122° Southeast  Level Estimated
07:11PM 41.1908 -87.1119 122° Southeast  Level Estimated
07:12PM 41.2241 -87.1399 122° Southeast  Level Estimated
07:13PM 41.2574 -87.1679 122° Southeast  Level Estimated
07:14PM 41.2906 -87.1960 122° Southeast  Level Estimated
07:15PM 41.3239 -87.2241 122° Southeast  Level Estimated
07:16PM 41.3572 -87.2522 122° Southeast  Level Estimated
07:17PM 41.3904 -87.2803 122° Southeast  Level Estimated
07:18PM 41.4237 -87.3085 122° Southeast  Level Estimated
07:19PM 41.4569 -87.3367 122° Southeast  Level Estimated
07:20PM 41.4901 -87.3649 122° Southeast  Level Estimated
07:21PM 41.5234 -87.3931 122° Southeast  Level Estimated
07:22PM 41.5566 -87.4214 122° Southeast  Level Estimated
07:23PM 41.5898 -87.4497 122° Southeast  Level Estimated
07:24PM 41.6230 -87.4781 122° Southeast  Level Estimated
07:25PM 41.6562 -87.5064 122° Southeast  Level Estimated
07:26PM 41.6894 -87.5348 122° Southeast  Level Estimated
07:27PM 41.7226 -87.5633 122° Southeast  Level Estimated
07:28PM 41.7558 -87.5917 122° Southeast  Level Estimated
07:29PM 41.7889 -87.6202 122° Southeast  Level Estimated
07:30PM 41.8221 -87.6487 122° Southeast  Level Estimated
07:31PM 41.8553 -87.6773 122° Southeast  Level Estimated
07:32PM 41.8884 -87.7059 122° Southeast  Level Estimated